createdAt,value
2019-04-11T00:00:39.727Z,52.35
2019-04-11T00:03:09.292Z,52.41
2019-04-11T00:05:39.132Z,52.23
2019-04-11T00:08:08.616Z,52.55
2019-04-11T00:10:37.851Z,52.49
2019-04-11T00:13:17.350Z,52.34
2019-04-11T00:15:38.537Z,52.38
2019-04-11T00:18:08.311Z,52.68
2019-04-11T00:20:38.141Z,52.85
2019-04-11T00:23:08.155Z,52.76
2019-04-11T00:25:37.819Z,52.56
2019-04-11T00:28:07.791Z,53.00
2019-04-11T00:30:37.185Z,52.91
2019-04-11T00:33:07.779Z,53.01
2019-04-11T00:35:37.313Z,52.96
2019-04-11T00:38:07.692Z,53.05
2019-04-11T00:40:38.167Z,53.20
2019-04-11T00:43:07.441Z,53.44
2019-04-11T00:45:36.607Z,53.21
2019-04-11T00:48:05.879Z,53.18
2019-04-11T00:50:35.115Z,52.99
2019-04-11T00:53:05.505Z,53.18
2019-04-11T00:55:35.608Z,53.23
2019-04-11T00:58:05.549Z,52.93
2019-04-11T01:00:36.540Z,53.18
2019-04-11T01:03:06.866Z,53.13
2019-04-11T01:05:37.366Z,53.21
2019-04-11T01:08:07.301Z,53.06
2019-04-11T01:10:36.801Z,53.23
2019-04-11T01:13:07.132Z,53.41
2019-04-11T01:15:38.736Z,52.99
2019-04-11T01:18:08.248Z,53.14
2019-04-11T01:20:37.743Z,53.34
2019-04-11T01:23:07.013Z,53.64
2019-04-11T01:25:36.863Z,53.74
2019-04-11T01:28:06.808Z,53.49
2019-04-11T01:30:55.640Z,53.32
2019-04-11T01:33:24.944Z,53.31
2019-04-11T01:35:55.385Z,53.26
2019-04-11T01:38:25.596Z,53.30
2019-04-11T01:40:56.089Z,53.56
2019-04-11T01:43:26.128Z,53.88
2019-04-11T01:45:55.999Z,53.98
2019-04-11T01:48:39.645Z,53.50
2019-04-11T01:51:09.691Z,53.60
2019-04-11T01:53:40.554Z,53.87
2019-04-11T01:56:10.652Z,53.54
2019-04-11T01:58:40.634Z,53.63
2019-04-11T02:01:28.545Z,53.58
2019-04-11T02:04:23.740Z,53.73
2019-04-11T02:06:54.120Z,54.17
2019-04-11T02:09:24.167Z,53.85
2019-04-11T02:11:54.048Z,54.13
2019-04-11T02:14:24.148Z,53.88
2019-04-11T02:16:53.683Z,54.15
2019-04-11T02:19:23.873Z,53.92
2019-04-11T02:21:54.948Z,54.29
2019-04-11T02:24:50.181Z,54.07
2019-04-11T02:27:23.306Z,54.26
2019-04-11T02:29:53.057Z,54.15
2019-04-11T02:32:25.371Z,54.57
2019-04-11T02:34:58.410Z,54.95
2019-04-11T02:37:26.294Z,55.17
2019-04-11T02:39:57.867Z,54.98
2019-04-11T02:42:27.706Z,54.81
2019-04-11T02:45:13.107Z,54.87
2019-04-11T02:47:32.632Z,54.62
2019-04-11T02:50:00.019Z,55.00
2019-04-11T02:52:31.116Z,54.77
2019-04-11T02:55:00.910Z,55.03
2019-04-11T02:57:32.156Z,54.76
2019-04-11T03:00:02.123Z,55.18
2019-04-11T03:02:32.721Z,54.82
2019-04-11T03:05:02.806Z,55.44
2019-04-11T03:07:34.037Z,55.45
2019-04-11T03:10:04.946Z,55.41
2019-04-11T03:12:36.130Z,55.44
2019-04-11T03:15:23.991Z,55.48
2019-04-11T03:17:43.104Z,55.63
2019-04-11T03:20:21.024Z,55.59
2019-04-11T03:22:40.624Z,55.88
2019-04-11T03:25:10.057Z,55.77
2019-04-11T03:27:40.923Z,55.85
2019-04-11T03:30:15.335Z,55.84
2019-04-11T03:33:43.605Z,55.69
2019-04-11T03:36:07.906Z,55.57
2019-04-11T03:38:05.781Z,55.57
2019-04-11T03:40:32.116Z,55.83
2019-04-11T03:43:04.326Z,55.89
2019-04-11T03:45:41.656Z,56.22
2019-04-11T03:48:05.728Z,56.13
2019-04-11T03:50:26.106Z,56.04
2019-04-11T03:52:56.043Z,56.30
2019-04-11T03:55:26.006Z,56.36
2019-04-11T03:57:58.644Z,56.54
2019-04-11T04:00:33.572Z,56.53
2019-04-11T04:03:00.186Z,56.23
2019-04-11T04:05:32.392Z,56.65
2019-04-11T04:08:03.500Z,56.68
2019-04-11T04:10:34.151Z,56.81
2019-04-11T04:13:05.422Z,56.75
2019-04-11T04:16:08.147Z,57.09
2019-04-11T04:18:40.336Z,56.78
2019-04-11T04:21:31.172Z,57.06
2019-04-11T04:24:03.831Z,57.28
2019-04-11T04:26:35.153Z,57.45
2019-04-11T04:29:04.666Z,57.38
2019-04-11T04:31:35.030Z,57.43
2019-04-11T04:34:04.366Z,57.24
2019-04-11T04:36:36.070Z,57.71
2019-04-11T04:39:06.245Z,57.52
2019-04-11T04:41:41.429Z,57.40
2019-04-11T04:44:08.596Z,57.30
2019-04-11T04:46:52.656Z,57.44
2019-04-11T04:49:11.048Z,57.45
2019-04-11T04:51:41.548Z,58.00
2019-04-11T04:54:14.206Z,58.11
2019-04-11T04:56:46.037Z,57.97
2019-04-11T04:59:16.345Z,58.54
2019-04-11T05:01:47.646Z,58.25
2019-04-11T05:04:21.057Z,58.29
2019-04-11T05:06:52.248Z,58.22
2019-04-11T05:09:21.481Z,59.88
2019-04-11T05:11:50.957Z,58.47
2019-04-11T05:14:21.005Z,58.36
2019-04-11T05:16:50.552Z,57.55
2019-04-11T05:19:19.797Z,57.70
2019-04-11T05:21:49.880Z,57.55
2019-04-11T05:24:19.150Z,57.69
2019-04-11T05:26:48.390Z,57.29
2019-04-11T05:29:17.638Z,57.27
2019-04-11T05:31:47.069Z,57.51
2019-04-11T05:34:16.307Z,57.11
2019-04-11T05:36:45.549Z,56.68
2019-04-11T05:39:16.779Z,56.95
2019-04-11T05:41:47.149Z,57.06
2019-04-11T05:44:16.846Z,57.03
2019-04-11T05:46:53.262Z,57.24
2019-04-11T05:49:36.155Z,57.39
2019-04-11T05:52:05.958Z,56.85
2019-04-11T05:54:47.610Z,57.56
2019-04-11T05:57:15.881Z,56.64
2019-04-11T05:59:50.978Z,56.67
2019-04-11T06:02:49.251Z,56.64
2019-04-11T06:05:49.937Z,56.50
2019-04-11T06:08:25.059Z,57.20
2019-04-11T06:11:17.260Z,55.74
2019-04-11T06:14:05.679Z,55.69
2019-04-11T06:16:39.540Z,55.39
2019-04-11T06:19:30.473Z,55.51
2019-04-11T06:22:08.688Z,55.15
2019-04-11T06:25:06.688Z,54.71
2019-04-11T06:27:45.903Z,55.21
2019-04-11T06:30:32.944Z,55.12
2019-04-11T06:33:32.655Z,54.99
2019-04-11T06:36:21.066Z,54.76
2019-04-11T06:39:09.860Z,53.73
2019-04-11T06:42:07.625Z,53.51
2019-04-11T06:44:54.264Z,53.04
2019-04-11T06:47:38.206Z,53.08
2019-04-11T06:50:15.975Z,53.00
2019-04-11T06:52:45.457Z,52.90
2019-04-11T06:55:42.755Z,52.53
2019-04-11T06:58:16.215Z,52.96
2019-04-11T07:00:50.014Z,52.99
2019-04-11T07:03:26.267Z,52.95
2019-04-11T07:05:55.269Z,53.20
2019-04-11T07:08:27.533Z,52.96
2019-04-11T07:11:02.864Z,53.14
2019-04-11T07:13:43.360Z,51.77
2019-04-11T07:16:13.464Z,51.60
2019-04-11T07:19:02.872Z,51.65
2019-04-11T07:21:35.471Z,51.52
2019-04-11T07:24:30.349Z,50.98
2019-04-11T07:27:05.195Z,50.97
2019-04-11T07:30:00.214Z,50.58
2019-04-11T07:32:30.029Z,50.86
2019-04-11T07:35:21.639Z,50.97
2019-04-11T07:37:53.386Z,50.54
2019-04-11T07:40:41.175Z,50.06
2019-04-11T07:43:35.704Z,49.75
2019-04-11T07:46:25.015Z,49.63
2019-04-11T07:49:03.759Z,49.57
2019-04-11T07:51:43.014Z,49.69
2019-04-11T07:54:18.050Z,50.11
2019-04-11T07:57:02.397Z,49.99
2019-04-11T07:59:50.960Z,49.96
2019-04-11T08:02:38.280Z,49.49
2019-04-11T08:05:46.774Z,49.34
2019-04-11T08:08:38.982Z,49.48
2019-04-11T08:11:25.719Z,48.40
2019-04-11T08:14:12.585Z,47.92
2019-04-11T08:17:01.659Z,48.44
2019-04-11T08:19:49.108Z,48.24
2019-04-11T08:22:35.177Z,47.67
2019-04-11T08:25:26.002Z,47.44
2019-04-11T08:28:01.369Z,47.49
2019-04-11T08:31:05.754Z,47.68
2019-04-11T08:33:35.603Z,48.04
2019-04-11T08:36:29.668Z,48.71
2019-04-11T08:39:00.643Z,48.48
2019-04-11T08:41:44.059Z,48.15
2019-04-11T08:44:18.037Z,46.74
2019-04-11T08:46:51.123Z,46.57
2019-04-11T08:49:33.861Z,46.54
2019-04-11T08:52:09.219Z,45.96
2019-04-11T08:54:55.963Z,45.07
2019-04-11T08:57:41.091Z,44.81
2019-04-11T09:00:42.182Z,44.41
2019-04-11T09:03:18.189Z,43.13
2019-04-11T09:06:02.572Z,42.30
2019-04-11T09:09:00.918Z,40.45
2019-04-11T09:11:42.347Z,40.78
2019-04-11T09:14:46.467Z,40.94
2019-04-11T09:17:24.449Z,40.66
2019-04-11T09:20:11.550Z,40.43
2019-04-11T09:22:47.398Z,39.18
2019-04-11T09:25:35.592Z,39.03
2019-04-11T09:28:13.652Z,37.63
2019-04-11T09:31:03.576Z,37.92
2019-04-11T09:33:51.321Z,38.07
2019-04-11T09:36:47.283Z,38.26
2019-04-11T09:39:41.511Z,38.36
2019-04-11T09:42:38.882Z,38.38
2019-04-11T09:45:38.917Z,38.76
2019-04-11T09:48:27.126Z,38.11
2019-04-11T09:51:14.004Z,38.54
2019-04-11T09:53:45.100Z,38.51
2019-04-11T09:56:39.684Z,38.95
2019-04-11T09:59:14.293Z,40.25
2019-04-11T10:02:03.102Z,39.84
2019-04-11T10:04:32.372Z,39.80
2019-04-11T10:07:30.153Z,39.45
2019-04-11T10:10:12.926Z,39.18
2019-04-11T10:13:00.531Z,39.41
2019-04-11T10:15:47.417Z,37.86
2019-04-11T10:18:51.533Z,38.01
2019-04-11T10:21:21.493Z,38.81
2019-04-11T10:24:20.536Z,38.52
2019-04-11T10:26:56.348Z,39.02
2019-04-11T10:29:44.095Z,39.79
2019-04-11T10:32:14.902Z,39.02
2019-04-11T10:34:54.158Z,37.87
2019-04-11T10:37:23.506Z,39.32
2019-04-11T10:40:01.886Z,38.73
2019-04-11T10:42:32.871Z,39.71
2019-04-11T10:45:31.199Z,37.56
2019-04-11T10:48:05.570Z,37.44
2019-04-11T10:51:02.976Z,36.26
2019-04-11T10:53:33.281Z,36.16
2019-04-11T10:56:34.670Z,34.63
2019-04-11T10:59:05.123Z,33.51
2019-04-11T11:01:52.699Z,31.32
2019-04-11T11:04:34.781Z,29.95
2019-04-11T11:07:25.080Z,30.07
2019-04-11T11:09:58.753Z,30.09
2019-04-11T11:12:37.162Z,31.86
2019-04-11T11:15:19.863Z,30.53
2019-04-11T11:20:50.071Z,30.06
2019-04-11T11:23:24.579Z,29.99
2019-04-11T11:26:22.543Z,30.95
2019-04-11T11:29:16.867Z,31.69
2019-04-11T11:31:58.165Z,31.48
2019-04-11T11:34:49.314Z,32.36
2019-04-11T11:37:37.358Z,32.80
2019-04-11T11:40:20.028Z,33.47
2019-04-11T11:43:27.474Z,33.97
2019-04-11T11:46:14.437Z,33.83
2019-04-11T11:48:49.527Z,33.90
2019-04-11T11:51:27.022Z,34.82
2019-04-11T11:54:24.010Z,33.68
2019-04-11T11:56:56.155Z,33.21
2019-04-11T11:59:38.700Z,32.62
2019-04-11T12:02:15.684Z,32.10
2019-04-11T12:05:20.489Z,30.56
2019-04-11T12:07:58.110Z,29.85
2019-04-11T12:10:41.657Z,29.85
2019-04-11T12:13:30.414Z,29.51
2019-04-11T12:16:09.983Z,28.18
2019-04-11T12:18:56.744Z,28.21
2019-04-11T12:21:31.011Z,28.57
2019-04-11T12:24:19.595Z,29.08
2019-04-11T12:27:02.375Z,29.16
2019-04-11T12:29:53.649Z,27.67
2019-04-11T12:32:25.822Z,27.29
2019-04-11T12:35:04.092Z,28.19
2019-04-11T12:37:38.244Z,28.46
2019-04-11T12:40:26.809Z,27.69
2019-04-11T12:42:56.572Z,27.89
2019-04-11T12:45:43.413Z,26.77
2019-04-11T12:48:12.731Z,26.41
2019-04-11T12:50:59.493Z,27.37
2019-04-11T12:53:28.968Z,27.16
2019-04-11T12:56:33.438Z,27.52
2019-04-11T12:59:05.705Z,28.06
2019-04-11T13:01:53.552Z,29.48
2019-04-11T13:04:39.757Z,29.10
2019-04-11T13:07:34.447Z,29.96
2019-04-11T13:10:26.142Z,30.06
2019-04-11T13:13:20.428Z,30.08
2019-04-11T13:15:54.766Z,29.17
2019-04-11T13:19:01.173Z,29.93
2019-04-11T13:21:41.653Z,30.51
2019-04-11T13:24:38.841Z,30.69
2019-04-11T13:27:14.010Z,30.39
2019-04-11T13:30:03.481Z,30.72
2019-04-11T13:33:07.543Z,30.12
2019-04-11T13:36:04.941Z,30.02
2019-04-11T13:38:42.030Z,30.19
2019-04-11T13:41:28.800Z,29.62
2019-04-11T13:44:19.961Z,30.32
2019-04-11T13:47:06.833Z,30.00
2019-04-11T13:49:47.535Z,30.46
2019-04-11T13:53:05.595Z,30.75
2019-04-11T13:55:37.674Z,31.18
2019-04-11T13:58:24.479Z,32.05
2019-04-11T14:00:58.105Z,32.14
2019-04-11T14:03:49.638Z,32.95
2019-04-11T14:06:28.164Z,32.53
2019-04-11T14:09:22.488Z,32.29
2019-04-11T14:11:53.668Z,30.39
2019-04-11T14:14:43.443Z,29.71
2019-04-11T14:17:17.846Z,28.81
2019-04-11T14:20:11.604Z,28.31
2019-04-11T14:23:14.905Z,27.85
2019-04-11T14:26:02.210Z,27.31
2019-04-11T14:28:40.346Z,28.00
2019-04-11T14:31:23.906Z,28.06
2019-04-11T14:33:57.470Z,27.83
2019-04-11T14:36:44.513Z,27.76
2019-04-11T14:39:15.499Z,26.84
2019-04-11T14:42:02.374Z,27.20
2019-04-11T14:44:32.085Z,27.11
2019-04-11T14:47:39.312Z,27.90
2019-04-11T14:50:11.213Z,28.14
2019-04-11T14:52:57.586Z,27.92
2019-04-11T14:55:29.258Z,27.96
2019-04-11T14:58:16.099Z,27.89
2019-04-11T15:00:45.372Z,28.24
2019-04-11T15:03:29.460Z,28.81
2019-04-11T15:06:35.775Z,29.46
2019-04-11T15:09:31.980Z,29.44
2019-04-11T15:12:10.882Z,28.77
2019-04-11T15:15:05.003Z,28.38
2019-04-11T15:17:37.351Z,27.87
2019-04-11T15:20:34.114Z,28.32
2019-04-11T15:23:31.058Z,29.09
2019-04-11T15:26:21.890Z,28.87
2019-04-11T15:29:16.010Z,28.49
2019-04-11T15:32:13.557Z,28.90
2019-04-11T15:34:46.255Z,30.41
2019-04-11T15:37:53.174Z,30.92
2019-04-11T15:40:47.255Z,31.28
2019-04-11T15:43:42.145Z,31.28
2019-04-11T15:46:18.818Z,31.07
2019-04-11T15:49:06.997Z,31.52
2019-04-11T15:51:37.696Z,31.43
2019-04-11T15:54:25.983Z,31.03
2019-04-11T15:57:18.095Z,30.36
2019-04-11T16:00:06.268Z,29.54
2019-04-11T16:02:57.421Z,29.90
2019-04-11T16:05:48.431Z,29.44
2019-04-11T16:08:39.432Z,29.38
2019-04-11T16:11:28.422Z,28.85
2019-04-11T16:14:06.067Z,29.25
2019-04-11T16:17:03.361Z,29.91
2019-04-11T16:19:49.822Z,30.28
2019-04-11T16:22:36.689Z,30.92
2019-04-11T16:25:11.776Z,31.61
2019-04-11T16:28:12.128Z,32.30
2019-04-11T16:30:46.215Z,33.01
2019-04-11T16:33:30.135Z,32.96
2019-04-11T16:36:18.018Z,33.46
2019-04-11T16:38:57.659Z,33.93
2019-04-11T16:41:44.361Z,34.75
2019-04-11T16:44:18.461Z,35.08
2019-04-11T16:47:18.197Z,35.86
2019-04-11T16:49:47.532Z,36.56
2019-04-11T16:52:17.407Z,36.82
2019-04-11T16:54:46.635Z,37.09
2019-04-11T16:57:15.930Z,36.92
2019-04-11T16:59:45.167Z,37.15
2019-04-11T17:02:14.495Z,37.82
2019-04-11T17:04:43.733Z,38.15
2019-04-11T17:07:40.795Z,38.52
2019-04-11T17:10:10.613Z,38.52
2019-04-11T17:12:39.889Z,38.65
2019-04-11T17:15:09.206Z,38.43
2019-04-11T17:17:38.550Z,38.70
2019-04-11T17:20:08.130Z,38.89
2019-04-11T17:22:38.028Z,39.50
2019-04-11T17:25:07.478Z,39.42
2019-04-11T17:27:36.793Z,40.04
2019-04-11T17:30:06.932Z,40.28
2019-04-11T17:32:36.432Z,40.34
2019-04-11T17:35:06.207Z,40.58
2019-04-11T17:37:35.553Z,41.08
2019-04-11T17:40:07.041Z,40.89
2019-04-11T17:42:36.969Z,41.26
2019-04-11T17:45:07.080Z,40.98
2019-04-11T17:47:36.299Z,41.68
2019-04-11T17:50:06.188Z,41.43
2019-04-11T17:52:35.433Z,41.37
2019-04-11T17:55:05.439Z,41.78
2019-04-11T17:57:34.685Z,41.70
2019-04-11T18:00:04.750Z,42.16
2019-04-11T18:02:34.690Z,41.95
2019-04-11T18:05:04.159Z,41.92
2019-04-11T18:07:33.391Z,42.26
2019-04-11T18:10:02.626Z,42.18
2019-04-11T18:12:31.888Z,42.48
2019-04-11T18:15:02.296Z,42.63
2019-04-11T18:17:32.728Z,43.11
2019-04-11T18:20:04.500Z,43.22
2019-04-11T18:22:34.174Z,43.56
2019-04-11T18:25:03.422Z,43.71
2019-04-11T18:27:32.972Z,43.71
2019-04-11T18:30:02.514Z,43.96
2019-04-11T18:32:31.728Z,43.97
2019-04-11T18:35:02.400Z,44.09
2019-04-11T18:37:32.190Z,44.10
2019-04-11T18:40:06.348Z,44.23
2019-04-11T18:42:32.948Z,44.25
2019-04-11T18:45:02.219Z,44.33
2019-04-11T18:47:31.823Z,44.43
2019-04-11T18:50:01.084Z,44.69
2019-04-11T18:52:32.701Z,44.64
2019-04-11T18:55:01.958Z,44.71
2019-04-11T18:57:31.259Z,45.10
2019-04-11T19:00:02.342Z,44.85
2019-04-11T19:02:32.713Z,45.06
2019-04-11T19:05:02.381Z,45.15
2019-04-11T19:07:31.562Z,45.10
2019-04-11T19:10:00.786Z,45.39
2019-04-11T19:12:30.030Z,45.60
2019-04-11T19:14:59.278Z,45.98
2019-04-11T19:17:30.390Z,45.55
2019-04-11T19:19:59.646Z,45.66
2019-04-11T19:22:37.525Z,45.96
2019-04-11T19:24:59.839Z,46.40
2019-04-11T19:27:29.071Z,45.97
2019-04-11T19:29:58.594Z,46.06
2019-04-11T19:32:27.833Z,45.96
2019-04-11T19:34:57.089Z,45.92
2019-04-11T19:37:26.319Z,46.28
2019-04-11T19:39:55.578Z,46.16
2019-04-11T19:42:24.792Z,46.15
2019-04-11T19:44:54.035Z,46.31
2019-04-11T19:47:23.268Z,46.19
2019-04-11T19:49:52.566Z,46.50
2019-04-11T19:52:21.746Z,46.79
2019-04-11T19:54:51.105Z,46.55
2019-04-11T19:57:20.377Z,46.38
2019-04-11T19:59:49.653Z,46.59
2019-04-11T20:02:18.872Z,46.76
2019-04-11T20:04:50.338Z,46.98
2019-04-11T20:07:19.614Z,46.90
2019-04-11T20:09:50.838Z,47.39
2019-04-11T20:12:20.094Z,47.69
2019-04-11T20:14:49.328Z,47.76
2019-04-11T20:17:19.329Z,47.96
2019-04-11T20:20:00.685Z,47.71
2019-04-11T20:22:20.195Z,47.68
2019-04-11T20:24:49.416Z,47.70
2019-04-11T20:27:20.341Z,48.03
2019-04-11T20:29:53.127Z,47.89
2019-04-11T20:32:20.747Z,48.08
2019-04-11T20:34:49.965Z,48.03
2019-04-11T20:37:19.231Z,48.17
2019-04-11T20:39:48.476Z,47.35
2019-04-11T20:42:17.853Z,47.79
2019-04-11T20:44:47.108Z,47.61
2019-04-11T20:47:16.901Z,47.32
2019-04-11T20:49:49.475Z,47.61
2019-04-11T20:52:18.738Z,46.97
2019-04-11T20:54:47.956Z,46.43
2019-04-11T20:57:25.511Z,46.18
2019-04-11T20:59:48.410Z,45.77
2019-04-11T21:02:17.681Z,45.96
2019-04-11T21:04:46.999Z,45.56
2019-04-11T21:07:16.261Z,45.81
2019-04-11T21:09:45.483Z,45.52
2019-04-11T21:12:16.674Z,45.58
2019-04-11T21:14:45.892Z,44.87
2019-04-11T21:17:15.125Z,45.25
2019-04-11T21:19:44.338Z,45.13
2019-04-11T21:22:13.591Z,45.17
2019-04-11T21:24:42.803Z,45.23
2019-04-11T21:27:12.051Z,45.61
2019-04-11T21:29:42.369Z,46.14
2019-04-11T21:32:13.940Z,45.69
2019-04-11T21:34:42.540Z,45.59
2019-04-11T21:37:12.186Z,46.10
2019-04-11T21:39:41.422Z,46.00
2019-04-11T21:42:10.641Z,45.97
2019-04-11T21:44:39.864Z,46.32
2019-04-11T21:47:09.180Z,46.55
2019-04-11T21:49:40.891Z,46.63
2019-04-11T21:52:12.290Z,46.89
2019-04-11T21:54:45.086Z,47.19
2019-04-11T21:57:14.972Z,47.53
2019-04-11T21:59:44.798Z,47.68
2019-04-11T22:02:15.128Z,47.45
2019-04-11T22:04:44.342Z,47.28
2019-04-11T22:07:13.595Z,47.58
2019-04-11T22:09:42.818Z,47.82
2019-04-11T22:12:12.054Z,48.06
2019-04-11T22:14:41.961Z,48.29
2019-04-11T22:17:15.066Z,49.07
2019-04-11T22:19:45.307Z,48.67
2019-04-11T22:22:13.721Z,49.14
2019-04-11T22:24:42.969Z,48.96
2019-04-11T22:27:12.255Z,49.39
2019-04-11T22:29:42.379Z,49.09
2019-04-11T22:32:11.598Z,49.35
2019-04-11T22:34:43.900Z,49.42
2019-04-11T22:37:13.115Z,49.78
2019-04-11T22:39:42.644Z,49.64
2019-04-11T22:42:12.339Z,49.76
2019-04-11T22:44:41.694Z,49.84
2019-04-11T22:47:12.934Z,50.25
2019-04-11T22:49:42.523Z,50.24
2019-04-11T22:52:12.211Z,50.45
2019-04-11T22:54:42.016Z,49.98
2019-04-11T22:57:12.116Z,50.32
2019-04-11T22:59:45.005Z,50.39
2019-04-11T23:02:29.213Z,50.98
2019-04-11T23:04:58.470Z,50.79
2019-04-11T23:07:28.890Z,51.02
2019-04-11T23:09:58.129Z,51.11
2019-04-11T23:12:28.781Z,51.22
2019-04-11T23:14:58.033Z,51.68
2019-04-11T23:17:27.256Z,51.52
2019-04-11T23:19:56.593Z,51.59
2019-04-11T23:22:25.803Z,51.57
2019-04-11T23:24:55.043Z,51.88
2019-04-11T23:27:24.258Z,52.01
2019-04-11T23:29:53.513Z,52.18
2019-04-11T23:32:22.741Z,52.19
2019-04-11T23:34:52.646Z,52.33
2019-04-11T23:37:22.820Z,52.27
2019-04-11T23:39:52.055Z,51.90
2019-04-11T23:42:21.277Z,52.42
2019-04-11T23:44:51.254Z,52.43
2019-04-11T23:47:23.035Z,52.71
2019-04-11T23:49:54.928Z,52.79
2019-04-11T23:52:26.379Z,52.70
2019-04-11T23:54:53.541Z,52.73
2019-04-11T23:57:22.739Z,52.75
2019-04-11T23:59:52.023Z,52.77
